createdAt,value
2018-06-04T00:00:07.378Z,0.00
2018-06-04T00:01:07.584Z,0.00
2018-06-04T00:02:07.783Z,0.00
2018-06-04T00:03:07.988Z,0.00
2018-06-04T00:04:08.173Z,0.00
2018-06-04T00:06:40.308Z,0.00
2018-06-04T00:07:40.482Z,0.00
2018-06-04T00:08:40.690Z,0.00
2018-06-04T00:09:40.877Z,0.00
2018-06-04T00:12:13.153Z,0.00
2018-06-04T00:13:13.322Z,0.00
2018-06-04T00:14:13.527Z,0.00
2018-06-04T00:15:13.737Z,0.00
2018-06-04T00:16:13.933Z,0.00
2018-06-04T00:18:46.078Z,0.00
2018-06-04T00:19:46.254Z,0.00
2018-06-04T00:20:46.447Z,0.00
2018-06-04T00:21:46.655Z,0.00
2018-06-04T00:22:46.858Z,0.00
2018-06-04T00:23:47.083Z,0.00
2018-06-04T00:24:47.302Z,0.00
2018-06-04T00:25:47.512Z,0.00
2018-06-04T00:26:47.720Z,0.00
2018-06-04T00:27:47.919Z,0.00
2018-06-04T00:28:48.114Z,0.00
2018-06-04T00:29:48.333Z,0.00
2018-06-04T00:30:48.527Z,0.00
2018-06-04T00:31:48.742Z,0.00
2018-06-04T00:32:48.955Z,0.00
2018-06-04T00:33:49.139Z,0.00
2018-06-04T00:34:49.331Z,0.00
2018-06-04T00:35:49.520Z,0.00
2018-06-04T00:36:49.711Z,0.00
2018-06-04T00:37:49.922Z,0.00
2018-06-04T00:38:50.121Z,0.00
2018-06-04T00:39:50.325Z,0.00
2018-06-04T00:40:50.532Z,0.00
2018-06-04T00:41:50.738Z,0.00
2018-06-04T00:42:50.923Z,0.00
2018-06-04T00:43:51.125Z,0.00
2018-06-04T00:44:51.331Z,0.00
2018-06-04T00:45:51.535Z,0.00
2018-06-04T00:46:51.757Z,0.00
2018-06-04T00:47:51.950Z,0.00
2018-06-04T00:48:52.142Z,0.00
2018-06-04T00:49:52.335Z,0.00
2018-06-04T00:50:52.520Z,0.00
2018-06-04T00:51:52.717Z,0.00
2018-06-04T00:52:52.907Z,0.00
2018-06-04T00:53:53.099Z,0.00
2018-06-04T00:54:53.295Z,0.00
2018-06-04T00:55:53.491Z,0.00
2018-06-04T00:56:53.701Z,0.00
2018-06-04T00:57:53.915Z,0.00
2018-06-04T01:00:25.719Z,0.00
2018-06-04T01:01:25.893Z,0.00
2018-06-04T01:02:26.091Z,0.00
2018-06-04T01:03:26.305Z,0.00
2018-06-04T01:04:26.488Z,0.00
2018-06-04T01:05:26.676Z,0.00
2018-06-04T01:06:26.865Z,0.00
2018-06-04T01:07:27.106Z,0.00
2018-06-04T01:08:27.264Z,0.00
2018-06-04T01:09:27.479Z,0.00
2018-06-04T01:11:59.631Z,0.00
2018-06-04T01:12:59.801Z,0.00
2018-06-04T01:14:00.013Z,0.00
2018-06-04T01:15:00.210Z,0.00
2018-06-04T01:16:00.400Z,0.00
2018-06-04T01:17:00.616Z,0.00
2018-06-04T01:18:00.801Z,0.00
2018-06-04T01:19:01.012Z,0.00
2018-06-04T01:20:01.207Z,0.00
2018-06-04T01:21:01.406Z,0.00
2018-06-04T01:22:01.605Z,0.00
2018-06-04T01:23:01.812Z,0.00
2018-06-04T01:24:02.028Z,0.00
2018-06-04T01:25:02.238Z,0.00
2018-06-04T01:26:02.421Z,0.00
2018-06-04T01:27:02.626Z,0.00
2018-06-04T01:28:02.836Z,0.00
2018-06-04T01:29:03.022Z,0.00
2018-06-04T01:30:03.217Z,0.00
2018-06-04T01:31:03.421Z,0.00
2018-06-04T01:32:03.622Z,0.00
2018-06-04T01:33:03.812Z,0.00
2018-06-04T01:34:04.001Z,0.00
2018-06-04T01:35:04.185Z,0.00
2018-06-04T01:36:04.370Z,0.00
2018-06-04T01:37:04.565Z,0.00
2018-06-04T01:38:04.760Z,0.00
2018-06-04T01:39:04.953Z,0.00
2018-06-04T01:40:05.168Z,0.00
2018-06-04T01:41:05.352Z,0.00
2018-06-04T01:42:05.558Z,0.00
2018-06-04T01:43:05.765Z,0.00
2018-06-04T01:44:05.946Z,0.00
2018-06-04T01:45:06.142Z,0.00
2018-06-04T01:46:06.321Z,0.00
2018-06-04T01:47:06.507Z,0.00
2018-06-04T01:48:06.717Z,0.00
2018-06-04T01:49:06.913Z,0.00
2018-06-04T01:50:07.120Z,0.00
2018-06-04T01:51:07.332Z,0.00
2018-06-04T01:52:07.515Z,0.00
2018-06-04T01:53:07.708Z,0.00
2018-06-04T01:54:07.900Z,0.00
2018-06-04T01:55:08.093Z,0.00
2018-06-04T01:56:08.305Z,0.00
2018-06-04T01:57:08.507Z,0.00
2018-06-04T01:59:40.689Z,0.00
2018-06-04T02:00:40.877Z,0.00
2018-06-04T02:01:41.084Z,0.00
2018-06-04T02:02:41.317Z,0.00
2018-06-04T02:03:41.532Z,0.00
2018-06-04T02:04:41.733Z,0.00
2018-06-04T02:05:41.916Z,0.00
2018-06-04T02:06:42.103Z,0.00
2018-06-04T02:07:42.316Z,0.00
2018-06-04T02:08:42.503Z,0.00
2018-06-04T02:09:42.706Z,0.00
2018-06-04T02:12:14.856Z,0.00
2018-06-04T02:13:15.030Z,0.00
2018-06-04T02:14:15.237Z,0.00
2018-06-04T02:15:15.448Z,0.00
2018-06-04T02:16:15.647Z,0.00
2018-06-04T02:17:15.833Z,0.00
2018-06-04T02:18:16.053Z,0.00
2018-06-04T02:19:16.257Z,0.00
2018-06-04T02:20:16.444Z,0.00
2018-06-04T02:21:16.657Z,0.00
2018-06-04T02:22:16.840Z,0.00
2018-06-04T02:23:17.022Z,0.00
2018-06-04T02:24:17.209Z,0.00
2018-06-04T02:25:17.403Z,0.00
2018-06-04T02:26:17.585Z,0.00
2018-06-04T02:27:17.784Z,0.00
2018-06-04T02:28:17.975Z,0.00
2018-06-04T02:29:18.168Z,0.00
2018-06-04T02:30:18.364Z,0.00
2018-06-04T02:31:18.548Z,0.00
2018-06-04T02:32:18.732Z,0.00
2018-06-04T02:33:18.934Z,0.00
2018-06-04T02:34:19.123Z,0.00
2018-06-04T02:35:19.312Z,0.00
2018-06-04T02:36:19.515Z,0.00
2018-06-04T02:37:19.732Z,0.00
2018-06-04T02:38:19.914Z,0.00
2018-06-04T02:39:20.110Z,0.00
2018-06-04T02:40:20.311Z,0.00
2018-06-04T02:41:20.527Z,0.00
2018-06-04T02:42:20.733Z,0.00
2018-06-04T02:43:20.936Z,0.00
2018-06-04T02:44:21.116Z,0.00
2018-06-04T02:45:21.313Z,0.00
2018-06-04T02:46:21.496Z,0.00
2018-06-04T02:47:21.702Z,0.00
2018-06-04T02:48:21.891Z,0.00
2018-06-04T02:49:22.105Z,0.00
2018-06-04T02:50:22.324Z,0.00
2018-06-04T02:51:22.526Z,0.00
2018-06-04T02:52:22.723Z,0.00
2018-06-04T02:53:22.908Z,0.00
2018-06-04T02:54:23.116Z,5.63
2018-06-04T02:55:23.320Z,5.63
2018-06-04T02:56:23.513Z,5.63
2018-06-04T02:57:23.779Z,5.63
2018-06-04T02:58:23.864Z,5.63
2018-06-04T02:59:24.078Z,5.63
2018-06-04T03:00:24.259Z,5.63
2018-06-04T03:01:24.450Z,5.63
2018-06-04T03:02:24.641Z,11.25
2018-06-04T03:03:24.834Z,11.25
2018-06-04T03:04:25.039Z,11.25
2018-06-04T03:05:25.239Z,11.25
2018-06-04T03:06:25.445Z,11.25
2018-06-04T03:07:25.625Z,16.88
2018-06-04T03:08:25.814Z,16.88
2018-06-04T03:09:26.029Z,16.88
2018-06-04T03:10:26.243Z,16.88
2018-06-04T03:11:26.458Z,22.50
2018-06-04T03:12:26.643Z,22.50
2018-06-04T03:13:26.861Z,22.50
2018-06-04T03:14:27.059Z,28.13
2018-06-04T03:15:27.261Z,28.13
2018-06-04T03:16:27.464Z,28.13
2018-06-04T03:17:27.679Z,33.75
2018-06-04T03:18:27.871Z,33.75
2018-06-04T03:19:28.056Z,39.38
2018-06-04T03:20:28.263Z,39.38
2018-06-04T03:21:28.470Z,39.38
2018-06-04T03:22:28.663Z,45.00
2018-06-04T03:23:28.849Z,45.00
2018-06-04T03:24:29.043Z,50.63
2018-06-04T03:25:29.241Z,50.63
2018-06-04T03:26:29.450Z,56.25
2018-06-04T03:27:29.664Z,61.88
2018-06-04T03:28:29.855Z,61.88
2018-06-04T03:29:30.062Z,67.50
2018-06-04T03:30:30.267Z,67.50
2018-06-04T03:31:30.487Z,73.13
2018-06-04T03:32:30.679Z,73.13
2018-06-04T03:33:30.872Z,78.75
2018-06-04T03:34:31.056Z,84.38
2018-06-04T03:35:31.246Z,84.38
2018-06-04T03:36:31.433Z,90.00
2018-06-04T03:37:31.621Z,90.00
2018-06-04T03:38:31.833Z,95.63
2018-06-04T03:39:32.029Z,101.25
2018-06-04T03:40:32.219Z,101.25
2018-06-04T03:41:32.432Z,106.88
2018-06-04T03:42:32.644Z,112.50
2018-06-04T03:43:32.839Z,118.13
2018-06-04T03:44:33.032Z,123.75
2018-06-04T03:45:33.231Z,129.38
2018-06-04T03:46:33.417Z,135.00
2018-06-04T03:47:33.601Z,140.63
2018-06-04T03:48:33.789Z,140.63
2018-06-04T03:49:33.978Z,146.25
2018-06-04T03:50:34.175Z,157.50
2018-06-04T03:51:34.385Z,163.13
2018-06-04T03:52:34.578Z,174.38
2018-06-04T03:53:34.791Z,185.63
2018-06-04T03:54:34.995Z,191.25
2018-06-04T03:55:35.186Z,196.88
2018-06-04T03:56:35.379Z,202.50
2018-06-04T03:59:07.779Z,219.38
2018-06-04T04:00:07.702Z,225.00
2018-06-04T04:01:07.980Z,230.63
2018-06-04T04:02:08.156Z,241.88
2018-06-04T04:03:08.199Z,247.50
2018-06-04T04:04:08.413Z,253.13
2018-06-04T04:05:08.606Z,264.38
2018-06-04T04:06:08.794Z,270.00
2018-06-04T04:07:08.979Z,281.25
2018-06-04T04:08:09.219Z,298.13
2018-06-04T04:09:09.432Z,303.75
2018-06-04T04:10:09.638Z,315.00
2018-06-04T04:11:09.821Z,399.38
2018-06-04T04:12:10.069Z,506.25
2018-06-04T04:13:10.225Z,540.00
2018-06-04T04:14:10.432Z,551.25
2018-06-04T04:15:10.633Z,568.13
2018-06-04T04:16:10.841Z,573.75
2018-06-04T04:17:11.025Z,596.25
2018-06-04T04:18:11.218Z,607.50
2018-06-04T04:19:11.437Z,613.13
2018-06-04T04:20:11.642Z,613.13
2018-06-04T04:21:11.859Z,635.63
2018-06-04T04:22:12.057Z,669.38
2018-06-04T04:23:12.235Z,691.88
2018-06-04T04:24:12.441Z,703.13
2018-06-04T04:25:12.640Z,691.88
2018-06-04T04:26:12.852Z,686.25
2018-06-04T04:27:13.041Z,736.88
2018-06-04T04:28:13.255Z,776.25
2018-06-04T04:29:13.450Z,787.50
2018-06-04T04:30:13.662Z,804.38
2018-06-04T04:31:13.885Z,770.63
2018-06-04T04:32:14.648Z,798.75
2018-06-04T04:33:14.247Z,590.63
2018-06-04T04:34:14.455Z,579.38
2018-06-04T04:35:14.662Z,528.75
2018-06-04T04:36:14.867Z,410.63
2018-06-04T04:37:15.052Z,506.25
2018-06-04T04:38:15.239Z,1001.25
2018-06-04T04:39:15.430Z,1029.38
2018-06-04T04:40:15.643Z,1057.50
2018-06-04T04:41:15.838Z,1040.63
2018-06-04T04:43:48.051Z,1175.63
2018-06-04T04:44:48.236Z,1243.13
2018-06-04T04:45:48.443Z,1265.63
2018-06-04T04:46:48.632Z,1299.38
2018-06-04T04:47:48.854Z,1327.50
2018-06-04T04:48:49.047Z,1344.38
2018-06-04T04:49:49.237Z,1378.13
2018-06-04T04:50:49.462Z,1406.25
2018-06-04T04:51:49.679Z,1428.75
2018-06-04T04:52:49.892Z,1440.00
2018-06-04T04:53:50.084Z,1485.00
2018-06-04T04:54:50.362Z,1496.25
2018-06-04T04:55:50.444Z,1530.00
2018-06-04T04:56:50.638Z,1535.63
2018-06-04T04:57:50.824Z,1546.88
2018-06-04T04:58:51.018Z,1552.50
2018-06-04T04:59:51.233Z,1552.50
2018-06-04T05:00:51.429Z,1614.38
2018-06-04T05:01:51.627Z,1676.25
2018-06-04T05:02:51.838Z,1710.00
2018-06-04T05:03:52.055Z,1726.88
2018-06-04T05:04:52.279Z,1771.88
2018-06-04T05:05:52.489Z,1833.75
2018-06-04T05:06:52.701Z,1878.75
2018-06-04T05:09:24.538Z,1940.63
2018-06-04T05:10:24.711Z,1963.13
2018-06-04T05:11:24.932Z,1980.00
2018-06-04T05:12:25.150Z,2008.13
2018-06-04T05:13:25.340Z,2041.88
2018-06-04T05:14:25.575Z,2070.00
2018-06-04T05:15:25.761Z,2098.13
2018-06-04T05:17:57.900Z,2193.75
2018-06-04T05:18:58.077Z,2210.63
2018-06-04T05:19:58.273Z,2233.13
2018-06-04T05:20:58.461Z,2250.00
2018-06-04T05:21:58.660Z,2272.50
2018-06-04T05:22:58.877Z,2306.25
2018-06-04T05:23:59.091Z,2340.00
2018-06-04T05:24:59.306Z,2373.75
2018-06-04T05:25:59.505Z,2401.88
2018-06-04T05:26:59.702Z,2430.00
2018-06-04T05:27:59.923Z,2463.75
2018-06-04T05:29:00.140Z,2486.25
2018-06-04T05:30:00.353Z,2508.75
2018-06-04T05:31:00.568Z,2531.25
2018-06-04T05:32:00.773Z,2565.00
2018-06-04T05:33:00.964Z,2593.13
2018-06-04T05:34:01.198Z,2615.63
2018-06-04T05:35:01.416Z,2638.13
2018-06-04T05:36:01.625Z,2671.88
2018-06-04T05:37:01.874Z,2694.38
2018-06-04T05:38:02.060Z,2739.38
2018-06-04T05:39:02.273Z,2778.75
2018-06-04T05:40:02.483Z,2801.25
2018-06-04T05:41:02.668Z,2818.13
2018-06-04T05:42:02.877Z,2857.50
2018-06-04T05:43:03.069Z,2908.13
2018-06-04T05:44:03.283Z,2936.25
2018-06-04T05:45:03.502Z,2970.00
2018-06-04T05:46:03.703Z,2992.50
2018-06-04T05:47:03.903Z,3020.63
2018-06-04T05:48:04.109Z,3048.75
2018-06-04T05:49:04.305Z,3088.13
2018-06-04T05:50:04.510Z,3105.00
2018-06-04T05:51:04.722Z,3150.00
2018-06-04T05:52:04.928Z,3150.00
2018-06-04T05:53:05.133Z,3178.13
2018-06-04T05:54:05.340Z,3206.25
2018-06-04T05:55:05.524Z,3228.75
2018-06-04T05:56:05.738Z,3251.25
2018-06-04T05:57:05.946Z,3279.38
2018-06-04T05:58:06.155Z,3296.25
2018-06-04T05:59:06.377Z,3335.63
2018-06-04T06:00:06.591Z,3335.63
2018-06-04T06:01:06.812Z,3363.75
2018-06-04T06:02:07.020Z,3375.00
2018-06-04T06:03:07.217Z,3391.88
2018-06-04T06:04:07.421Z,3403.13
2018-06-04T06:05:07.625Z,3420.00
2018-06-04T06:06:07.837Z,3442.50
2018-06-04T06:07:08.044Z,3470.63
2018-06-04T06:08:08.262Z,3493.13
2018-06-04T06:09:08.505Z,3526.88
2018-06-04T06:10:08.682Z,3571.88
2018-06-04T06:11:08.909Z,3611.25
2018-06-04T06:12:09.131Z,3656.25
2018-06-04T06:13:09.343Z,3678.75
2018-06-04T06:14:09.619Z,3712.50
2018-06-04T06:15:09.795Z,3746.25
2018-06-04T06:16:10.021Z,3785.63
2018-06-04T06:17:10.220Z,3774.38
2018-06-04T06:18:10.439Z,3813.75
2018-06-04T06:19:10.635Z,3830.63
2018-06-04T06:20:10.842Z,3864.38
2018-06-04T06:21:11.065Z,3875.63
2018-06-04T06:22:11.266Z,3892.50
2018-06-04T06:23:11.481Z,3915.00
2018-06-04T06:24:11.707Z,3948.75
2018-06-04T06:25:11.934Z,3976.88
2018-06-04T06:26:12.150Z,4005.00
2018-06-04T06:27:12.365Z,3999.38
2018-06-04T06:28:12.584Z,3988.13
2018-06-04T06:29:12.795Z,4021.88
2018-06-04T06:30:13.013Z,4038.75
2018-06-04T06:31:13.214Z,4038.75
2018-06-04T06:32:13.419Z,4038.75
2018-06-04T06:33:13.621Z,4072.50
2018-06-04T06:34:13.837Z,4083.75
2018-06-04T06:35:14.037Z,4083.75
2018-06-04T06:36:14.230Z,4117.50
2018-06-04T06:37:14.459Z,4134.38
2018-06-04T06:38:14.653Z,4190.63
2018-06-04T06:39:14.861Z,4218.75
2018-06-04T06:40:15.061Z,4263.75
2018-06-04T06:41:15.271Z,4263.75
2018-06-04T06:42:15.480Z,4297.50
2018-06-04T06:43:15.677Z,4320.00
2018-06-04T06:44:15.901Z,4308.75
2018-06-04T06:45:16.116Z,4336.88
2018-06-04T06:46:16.314Z,4348.13
2018-06-04T06:47:16.513Z,4370.63
2018-06-04T06:48:16.713Z,4398.75
2018-06-04T06:49:16.927Z,4415.63
2018-06-04T06:50:17.128Z,4438.13
2018-06-04T06:51:17.350Z,4443.75
2018-06-04T06:52:17.578Z,4466.25
2018-06-04T06:53:17.795Z,4488.75
2018-06-04T06:54:18.078Z,4505.63
2018-06-04T06:55:18.176Z,4533.75
2018-06-04T06:56:18.396Z,4561.88
2018-06-04T06:57:18.591Z,4567.50
2018-06-04T06:58:18.813Z,4606.88
2018-06-04T06:59:19.031Z,4629.38
2018-06-04T07:00:19.233Z,4618.13
2018-06-04T07:01:19.438Z,4612.50
2018-06-04T07:03:51.862Z,4573.13
2018-06-04T07:04:51.799Z,4567.50
2018-06-04T07:05:51.999Z,4595.63
2018-06-04T07:06:52.210Z,4590.00
2018-06-04T07:07:52.420Z,4601.25
2018-06-04T07:08:52.643Z,4663.13
2018-06-04T07:09:52.866Z,4702.50
2018-06-04T07:10:53.081Z,4725.00
2018-06-04T07:11:53.310Z,4781.25
2018-06-04T07:12:53.529Z,4809.38
2018-06-04T07:13:53.723Z,4826.25
2018-06-04T07:16:25.574Z,4843.13
2018-06-04T07:17:25.751Z,4860.00
2018-06-04T07:18:25.968Z,4888.13
2018-06-04T07:19:26.171Z,4921.88
2018-06-04T07:20:26.379Z,4944.38
2018-06-04T07:21:26.594Z,4983.75
2018-06-04T07:22:26.796Z,5023.13
2018-06-04T07:23:27.003Z,5011.88
2018-06-04T07:24:27.212Z,4983.75
2018-06-04T07:25:27.431Z,4983.75
2018-06-04T07:26:27.639Z,5011.88
2018-06-04T07:27:27.837Z,5062.50
2018-06-04T07:28:28.051Z,5107.50
2018-06-04T07:29:28.270Z,5130.00
2018-06-04T07:30:28.482Z,5130.00
2018-06-04T07:31:28.705Z,5090.63
2018-06-04T07:32:28.902Z,5208.75
2018-06-04T07:33:29.129Z,5242.50
2018-06-04T07:34:29.336Z,5265.00
2018-06-04T07:35:29.581Z,5242.50
2018-06-04T07:36:29.813Z,5242.50
2018-06-04T07:37:30.029Z,5242.50
2018-06-04T07:38:30.250Z,5287.50
2018-06-04T07:39:30.448Z,5298.75
2018-06-04T07:42:02.830Z,5383.13
2018-06-04T07:43:03.019Z,5383.13
2018-06-04T07:44:03.223Z,5366.25
2018-06-04T07:45:03.442Z,5388.75
2018-06-04T07:46:03.660Z,5383.13
2018-06-04T07:47:03.862Z,5377.50
2018-06-04T07:48:04.070Z,5377.50
2018-06-04T07:49:04.273Z,5428.13
2018-06-04T07:50:04.501Z,5411.25
2018-06-04T07:51:04.698Z,5433.75
2018-06-04T07:52:04.910Z,5445.00
2018-06-04T07:53:05.134Z,5473.13
2018-06-04T07:54:05.336Z,5473.13
2018-06-04T07:55:05.563Z,5495.63
2018-06-04T07:56:05.774Z,5512.50
2018-06-04T07:57:05.986Z,5551.88
2018-06-04T07:58:06.188Z,5512.50
2018-06-04T07:59:06.407Z,5518.13
2018-06-04T08:00:06.621Z,5523.75
2018-06-04T08:01:06.828Z,5551.88
2018-06-04T08:02:07.021Z,5568.75
2018-06-04T08:03:07.245Z,5602.50
2018-06-04T08:04:07.450Z,5608.13
2018-06-04T08:05:07.673Z,5613.75
2018-06-04T08:06:07.897Z,5580.00
2018-06-04T08:07:08.105Z,5613.75
2018-06-04T08:08:08.298Z,5596.88
2018-06-04T08:09:08.535Z,5647.50
2018-06-04T08:10:08.781Z,5670.00
2018-06-04T08:11:08.976Z,5641.88
2018-06-04T08:12:09.194Z,5664.38
2018-06-04T08:13:09.406Z,5692.50
2018-06-04T08:14:09.640Z,5709.38
2018-06-04T08:15:09.842Z,5776.88
2018-06-04T08:16:10.061Z,5765.63
2018-06-04T08:17:10.269Z,5715.00
2018-06-04T08:18:10.498Z,5776.88
2018-06-04T08:19:10.696Z,5754.38
2018-06-04T08:20:10.900Z,5765.63
2018-06-04T08:21:11.127Z,5782.50
2018-06-04T08:22:11.357Z,5765.63
2018-06-04T08:23:11.552Z,5765.63
2018-06-04T08:24:11.838Z,5726.25
2018-06-04T08:25:11.978Z,5765.63
2018-06-04T08:26:12.205Z,5793.75
2018-06-04T08:27:12.409Z,5833.13
2018-06-04T08:28:12.619Z,5827.50
2018-06-04T08:29:12.861Z,5793.75
2018-06-04T08:30:13.057Z,5771.25
2018-06-04T08:31:13.273Z,5754.38
2018-06-04T08:32:13.500Z,5793.75
2018-06-04T08:33:13.704Z,5827.50
2018-06-04T08:34:13.903Z,5872.50
2018-06-04T08:35:14.133Z,5889.38
2018-06-04T08:36:14.334Z,5906.25
2018-06-04T08:37:14.557Z,5866.88
2018-06-04T08:38:14.756Z,5866.88
2018-06-04T08:39:14.969Z,5850.00
2018-06-04T08:40:15.239Z,5850.00
2018-06-04T08:41:15.388Z,5872.50
2018-06-04T08:42:15.594Z,5855.63
2018-06-04T08:43:15.826Z,5821.88
2018-06-04T08:44:16.055Z,5872.50
2018-06-04T08:45:16.291Z,5895.00
2018-06-04T08:46:16.511Z,5900.63
2018-06-04T08:47:16.725Z,5883.75
2018-06-04T08:48:16.924Z,5889.38
2018-06-04T08:49:17.146Z,5878.13
2018-06-04T08:50:17.361Z,5889.38
2018-06-04T08:51:17.587Z,5866.88
2018-06-04T08:52:17.803Z,5883.75
2018-06-04T08:53:18.043Z,5816.25
2018-06-04T08:54:18.276Z,5754.38
2018-06-04T08:55:18.503Z,5686.88
2018-06-04T08:56:18.720Z,5546.25
2018-06-04T08:57:18.928Z,5473.13
2018-06-04T08:58:19.140Z,5506.88
2018-06-04T08:59:19.340Z,5512.50
2018-06-04T09:00:19.540Z,5512.50
2018-06-04T09:01:19.741Z,5568.75
2018-06-04T09:03:51.912Z,5788.13
2018-06-04T09:04:52.101Z,5821.88
2018-06-04T09:05:52.310Z,5799.38
2018-06-04T09:06:52.538Z,5731.88
2018-06-04T09:07:52.743Z,5743.13
2018-06-04T09:08:52.974Z,5703.75
2018-06-04T09:09:53.205Z,5692.50
2018-06-04T09:10:53.425Z,5670.00
2018-06-04T09:11:53.624Z,5574.38
2018-06-04T09:12:53.835Z,5501.25
2018-06-04T09:13:54.159Z,5456.25
2018-06-04T09:14:54.233Z,5405.63
2018-06-04T09:15:54.441Z,5366.25
2018-06-04T09:16:54.644Z,5366.25
2018-06-04T09:17:54.865Z,5383.13
2018-06-04T09:18:55.068Z,5456.25
2018-06-04T09:19:55.274Z,5506.88
2018-06-04T09:20:55.498Z,5546.25
2018-06-04T09:21:55.698Z,5591.25
2018-06-04T09:22:55.916Z,5630.63
2018-06-04T09:23:56.120Z,5630.63
2018-06-04T09:24:56.346Z,5625.00
2018-06-04T09:25:56.551Z,5591.25
2018-06-04T09:26:56.754Z,5563.13
2018-06-04T09:27:56.956Z,5563.13
2018-06-04T09:28:57.158Z,5551.88
2018-06-04T09:29:57.377Z,5529.38
2018-06-04T09:30:57.613Z,5495.63
2018-06-04T09:31:57.822Z,5495.63
2018-06-04T09:32:58.028Z,5478.75
2018-06-04T09:33:58.246Z,5484.38
2018-06-04T09:34:58.449Z,5490.00
2018-06-04T09:35:58.674Z,5484.38
2018-06-04T09:36:58.921Z,5461.88
2018-06-04T09:37:59.118Z,5473.13
2018-06-04T09:38:59.337Z,5450.63
2018-06-04T09:39:59.649Z,5422.50
2018-06-04T09:40:59.806Z,5405.63
2018-06-04T09:42:00.023Z,5411.25
2018-06-04T09:43:00.231Z,5439.38
2018-06-04T09:44:00.459Z,5450.63
2018-06-04T09:45:00.683Z,5394.38
2018-06-04T09:46:00.894Z,5343.75
2018-06-04T09:47:01.090Z,5326.88
2018-06-04T09:48:01.314Z,5332.50
2018-06-04T09:49:01.513Z,5315.63
2018-06-04T09:50:01.737Z,5315.63
2018-06-04T09:51:01.966Z,5304.38
2018-06-04T09:53:34.117Z,5242.50
2018-06-04T09:54:34.311Z,5270.63
2018-06-04T09:55:34.544Z,5281.88
2018-06-04T09:56:34.763Z,5276.25
2018-06-04T09:57:34.963Z,5298.75
2018-06-04T09:58:35.209Z,5293.13
2018-06-04T09:59:35.407Z,5310.00
2018-06-04T10:00:35.607Z,5315.63
2018-06-04T10:01:35.811Z,5326.88
2018-06-04T10:02:36.020Z,5343.75
2018-06-04T10:03:36.253Z,5349.38
2018-06-04T10:04:36.496Z,5343.75
2018-06-04T10:05:36.709Z,5349.38
2018-06-04T10:06:36.930Z,5360.63
2018-06-04T10:07:37.152Z,5315.63
2018-06-04T10:08:37.365Z,5287.50
2018-06-04T10:09:37.591Z,5287.50
2018-06-04T10:10:37.802Z,5281.88
2018-06-04T10:11:38.003Z,5287.50
2018-06-04T10:12:38.209Z,5287.50
2018-06-04T10:13:38.430Z,5281.88
2018-06-04T10:14:38.652Z,5186.25
2018-06-04T10:15:38.861Z,5113.13
2018-06-04T10:16:39.087Z,5011.88
2018-06-04T10:17:39.263Z,4972.50
2018-06-04T10:18:39.491Z,4944.38
2018-06-04T10:19:39.661Z,4927.50
2018-06-04T10:20:39.865Z,4916.25
2018-06-04T10:21:40.064Z,4781.25
2018-06-04T10:22:40.263Z,3830.63
2018-06-04T10:23:40.475Z,2548.13
2018-06-04T10:24:40.679Z,1591.88
2018-06-04T10:25:40.879Z,1423.13
2018-06-04T10:26:41.105Z,1411.88
2018-06-04T10:27:41.332Z,1383.75
2018-06-04T10:28:41.563Z,1361.25
2018-06-04T10:29:41.786Z,1344.38
2018-06-04T10:30:41.996Z,1338.75
2018-06-04T10:31:42.195Z,1333.13
2018-06-04T10:32:42.413Z,1321.88
2018-06-04T10:33:42.721Z,1321.88
2018-06-04T10:34:42.860Z,1316.25
2018-06-04T10:35:43.090Z,1321.88
2018-06-04T10:36:43.312Z,1350.00
2018-06-04T10:37:43.530Z,1350.00
2018-06-04T10:38:43.753Z,1366.88
2018-06-04T10:39:43.965Z,1372.50
2018-06-04T10:40:44.180Z,1366.88
2018-06-04T10:41:44.399Z,1366.88
2018-06-04T10:42:44.625Z,1355.63
2018-06-04T10:43:44.812Z,1333.13
2018-06-04T10:44:45.005Z,1288.13
2018-06-04T10:45:45.229Z,1276.88
2018-06-04T10:46:45.424Z,1276.88
2018-06-04T10:47:45.645Z,1271.25
2018-06-04T10:48:45.852Z,1254.38
2018-06-04T10:49:46.043Z,1248.75
2018-06-04T10:50:46.265Z,1243.13
2018-06-04T10:51:46.472Z,1237.50
2018-06-04T10:52:46.674Z,1231.88
2018-06-04T10:53:46.893Z,1226.25
2018-06-04T10:54:47.114Z,1226.25
2018-06-04T10:55:47.356Z,1215.00
2018-06-04T10:56:47.550Z,1192.50
2018-06-04T10:57:47.779Z,1170.00
2018-06-04T10:58:47.982Z,1164.38
2018-06-04T10:59:48.206Z,1164.38
2018-06-04T11:00:48.385Z,1164.38
2018-06-04T11:01:48.583Z,1170.00
2018-06-04T11:02:48.772Z,1158.75
2018-06-04T11:03:48.971Z,1141.88
2018-06-04T11:04:49.210Z,1147.50
2018-06-04T11:05:49.404Z,1141.88
2018-06-04T11:06:49.606Z,1147.50
2018-06-04T11:07:49.812Z,1147.50
2018-06-04T11:08:50.007Z,1125.00
2018-06-04T11:09:50.212Z,1102.50
2018-06-04T11:10:50.433Z,1102.50
2018-06-04T11:11:50.631Z,1125.00
2018-06-04T11:14:22.770Z,1153.13
2018-06-04T11:15:22.952Z,1164.38
2018-06-04T11:16:23.177Z,1181.25
2018-06-04T11:17:23.377Z,1175.63
2018-06-04T11:18:23.584Z,1181.25
2018-06-04T11:19:23.815Z,1198.13
2018-06-04T11:20:24.008Z,1198.13
2018-06-04T11:21:24.209Z,1209.38
2018-06-04T11:22:24.422Z,1231.88
2018-06-04T11:23:24.641Z,1231.88
2018-06-04T11:24:24.843Z,1215.00
2018-06-04T11:25:25.059Z,1181.25
2018-06-04T11:26:25.257Z,1175.63
2018-06-04T11:27:25.581Z,1158.75
2018-06-04T11:28:25.651Z,1175.63
2018-06-04T11:29:25.873Z,1192.50
2018-06-04T11:30:26.082Z,1181.25
2018-06-04T11:31:26.281Z,1164.38
2018-06-04T11:32:26.481Z,1158.75
2018-06-04T11:33:26.711Z,1012.50
2018-06-04T11:34:26.931Z,1035.00
2018-06-04T11:35:27.161Z,1046.25
2018-06-04T11:36:27.383Z,1108.13
2018-06-04T11:37:27.665Z,1102.50
2018-06-04T11:38:27.823Z,1085.63
2018-06-04T11:39:28.018Z,1057.50
2018-06-04T11:40:28.234Z,1051.88
2018-06-04T11:41:28.456Z,1057.50
2018-06-04T11:42:28.685Z,1063.13
2018-06-04T11:43:28.905Z,1085.63
2018-06-04T11:44:29.112Z,1091.25
2018-06-04T11:45:29.328Z,1096.88
2018-06-04T11:46:29.527Z,1102.50
2018-06-04T11:47:29.745Z,1085.63
2018-06-04T11:48:29.987Z,1074.38
2018-06-04T11:49:30.163Z,1051.88
2018-06-04T11:50:30.375Z,1040.63
2018-06-04T11:51:30.583Z,1046.25
2018-06-04T11:52:30.787Z,1040.63
2018-06-04T11:53:31.012Z,1012.50
2018-06-04T11:54:31.260Z,984.38
2018-06-04T11:55:31.453Z,973.13
2018-06-04T11:56:31.776Z,933.75
2018-06-04T11:57:31.894Z,967.50
2018-06-04T11:58:32.118Z,967.50
2018-06-04T11:59:32.341Z,967.50
2018-06-04T12:00:32.533Z,961.88
2018-06-04T12:01:32.734Z,956.25
2018-06-04T12:02:32.937Z,950.63
2018-06-04T12:03:33.150Z,950.63
2018-06-04T12:04:33.349Z,950.63
2018-06-04T12:05:33.589Z,950.63
2018-06-04T12:06:33.794Z,945.00
2018-06-04T12:07:34.005Z,950.63
2018-06-04T12:08:34.254Z,961.88
2018-06-04T12:09:34.422Z,956.25
2018-06-04T12:10:34.645Z,950.63
2018-06-04T12:11:34.920Z,945.00
2018-06-04T12:12:35.073Z,939.38
2018-06-04T12:13:35.309Z,933.75
2018-06-04T12:14:35.523Z,933.75
2018-06-04T12:15:35.746Z,916.88
2018-06-04T12:16:35.953Z,905.63
2018-06-04T12:17:36.147Z,905.63
2018-06-04T12:18:36.361Z,894.38
2018-06-04T12:19:36.552Z,894.38
2018-06-04T12:20:36.783Z,888.75
2018-06-04T12:21:37.002Z,888.75
2018-06-04T12:22:37.205Z,883.13
2018-06-04T12:23:37.407Z,877.50
2018-06-04T12:24:37.603Z,871.88
2018-06-04T12:25:37.802Z,866.25
2018-06-04T12:26:38.008Z,860.63
2018-06-04T12:27:38.211Z,866.25
2018-06-04T12:28:38.402Z,866.25
2018-06-04T12:29:38.616Z,866.25
2018-06-04T12:30:38.831Z,871.88
2018-06-04T12:31:39.046Z,871.88
2018-06-04T12:32:39.242Z,866.25
2018-06-04T12:33:39.454Z,871.88
2018-06-04T12:34:39.709Z,877.50
2018-06-04T12:35:39.889Z,883.13
2018-06-04T12:36:40.083Z,894.38
2018-06-04T12:37:40.296Z,894.38
2018-06-04T12:38:40.514Z,900.00
2018-06-04T12:39:40.731Z,905.63
2018-06-04T12:40:40.970Z,922.50
2018-06-04T12:41:41.157Z,922.50
2018-06-04T12:42:41.353Z,939.38
2018-06-04T12:43:41.561Z,961.88
2018-06-04T12:44:41.778Z,967.50
2018-06-04T12:45:41.989Z,973.13
2018-06-04T12:46:42.212Z,973.13
2018-06-04T12:47:42.424Z,967.50
2018-06-04T12:48:42.630Z,967.50
2018-06-04T12:49:42.830Z,950.63
2018-06-04T12:52:14.683Z,939.38
2018-06-04T12:53:14.876Z,933.75
2018-06-04T12:54:15.090Z,922.50
2018-06-04T12:55:15.307Z,922.50
2018-06-04T12:56:15.570Z,916.88
2018-06-04T12:57:15.750Z,894.38